Time;durP1;ratioP1;P1;durP2;ratioP2;P2;SDS_P1;SDS_P2;PMS_P1;PMS_P2;Temp;Humidity;BMP_temperature;BMP_pressure;BME280_temperature;BME280_humidity;BME280_pressure;Samples;Min_cycle;Max_cycle;Signal;HPM_P1;HPM_P2
2021/04/11 00:01:40;;;;;;;;;10.75;7.75;;;;;15.19;43.06;98475.91;4861417;28;103067;-80
2021/04/11 00:04:07;;;;;;;;;9.25;8.00;;;;;15.20;42.96;98474.03;4862096;28;101943;-80
2021/04/11 00:06:34;;;;;;;;;8.25;7.75;;;;;15.18;42.98;98476.97;4864522;28;102212;-80
2021/04/11 00:09:01;;;;;;;;;10.50;7.25;;;;;15.17;43.31;98471.78;4844128;28;103384;-80
2021/04/11 00:11:28;;;;;;;;;8.00;7.25;;;;;15.17;42.58;98478.03;4830019;28;103054;-81
2021/04/11 00:13:55;;;;;;;;;9.25;8.25;;;;;15.17;42.76;98475.31;4843741;28;101814;-81
2021/04/11 00:16:22;;;;;;;;;7.75;7.75;;;;;15.18;42.82;98476.13;4842152;28;103386;-80
2021/04/11 00:18:49;;;;;;;;;7.75;6.50;;;;;15.16;42.53;98479.13;4861303;28;103550;-80
2021/04/11 00:21:16;;;;;;;;;8.50;6.50;;;;;15.16;42.89;98478.28;4846447;29;102169;-80
2021/04/11 00:23:43;;;;;;;;;8.50;8.00;;;;;15.15;43.20;98473.88;4846751;28;102141;-80
2021/04/11 00:26:10;;;;;;;;;8.50;7.50;;;;;15.14;42.77;98481.22;4846580;28;103048;-80
2021/04/11 00:28:37;;;;;;;;;7.25;7.25;;;;;15.13;42.85;98473.28;4858456;28;102243;-81
2021/04/11 00:31:04;;;;;;;;;5.00;5.00;;;;;15.12;42.94;98475.19;4863213;28;102924;-81
2021/04/11 00:33:39;;;;;;;;;8.00;7.25;;;;;15.13;43.10;98479.56;4860905;28;102908;-81
2021/04/11 00:36:11;;;;;;;;;10.50;8.00;;;;;15.12;42.90;98471.66;4841385;28;102100;-81
2021/04/11 00:38:37;;;;;;;;;10.00;8.25;;;;;15.12;42.90;98483.38;4845265;28;103394;-81
2021/04/11 00:41:33;;;;;;;;;9.00;7.25;;;;;15.11;42.79;98483.59;4861171;28;102496;-80
2021/04/11 00:44:01;;;;;;;;;9.50;7.25;;;;;15.11;42.99;98475.44;4857180;28;102053;-80
2021/04/11 00:46:46;;;;;;;;;9.50;8.00;;;;;15.11;42.78;98487.16;4859566;28;102089;-80
2021/04/11 00:49:35;;;;;;;;;8.00;7.00;;;;;15.09;42.71;98477.53;4861449;28;103816;-81
2021/04/11 00:52:04;;;;;;;;;11.75;9.50;;;;;15.09;43.20;98472.09;4860366;28;102266;-81
2021/04/11 00:54:31;;;;;;;;;7.25;7.25;;;;;15.08;42.80;98473.97;4858247;28;102276;-80
2021/04/11 00:56:58;;;;;;;;;6.00;4.00;;;;;15.08;42.65;98490.31;4846591;28;102018;-80
2021/04/11 00:59:24;;;;;;;;;8.00;7.00;;;;;15.08;43.17;98476.69;4836164;28;104473;-80
2021/04/11 01:01:51;;;;;;;;;10.00;9.25;;;;;15.08;42.84;98475.91;4843722;28;101721;-80
2021/04/11 01:04:18;;;;;;;;;9.00;7.25;;;;;15.05;43.15;98466.28;4862129;28;101877;-80
2021/04/11 01:06:48;;;;;;;;;8.00;7.25;;;;;15.04;42.75;98472.00;4829792;28;102076;-80
2021/04/11 01:09:17;;;;;;;;;9.00;8.00;;;;;15.05;43.00;98477.19;4844133;28;103480;-80
2021/04/11 01:11:44;;;;;;;;;8.00;7.00;;;;;15.05;43.06;98477.19;4845303;28;101853;-80
2021/04/11 01:14:11;;;;;;;;;9.75;8.00;;;;;15.06;42.85;98481.56;4846814;28;101827;-80
2021/04/11 01:16:38;;;;;;;;;8.00;7.25;;;;;15.04;43.11;98486.41;4867185;28;103150;-80
2021/04/11 01:19:09;;;;;;;;;9.50;8.00;;;;;15.04;43.42;98483.69;4845735;28;103640;-80
2021/04/11 01:22:00;;;;;;;;;7.50;6.75;;;;;15.04;43.29;98486.41;4863944;28;101974;-79
2021/04/11 01:24:36;;;;;;;;;8.25;6.75;;;;;15.04;43.15;98475.50;4866807;28;102005;-80
2021/04/11 01:27:06;;;;;;;;;7.25;6.25;;;;;15.04;42.63;98491.84;4866610;28;102063;-80
2021/04/11 01:29:33;;;;;;;;;9.00;8.00;;;;;15.02;42.75;98480.38;4849945;28;103581;-80
2021/04/11 01:32:00;;;;;;;;;10.00;7.75;;;;;15.02;42.84;98472.22;4833085;28;102954;-80
2021/04/11 01:34:27;;;;;;;;;10.00;8.25;;;;;15.01;42.92;98481.44;4864587;28;102105;-80
2021/04/11 01:36:54;;;;;;;;;8.75;7.75;;;;;15.02;43.15;98474.94;4863265;28;102183;-80
2021/04/11 01:39:24;;;;;;;;;9.25;8.25;;;;;15.01;42.82;98477.88;4861529;28;104942;-80
2021/04/11 01:41:53;;;;;;;;;7.75;7.75;;;;;15.00;43.27;98479.75;4846016;28;102206;-80
2021/04/11 01:44:32;;;;;;;;;9.00;7.00;;;;;15.01;42.85;98478.72;4845336;28;103091;-80
2021/04/11 01:46:59;;;;;;;;;9.75;8.25;;;;;15.01;43.04;98483.31;4836057;28;102156;-80
2021/04/11 01:49:27;;;;;;;;;9.50;7.25;;;;;14.99;43.28;98469.97;4847790;28;103577;-80
2021/04/11 01:51:58;;;;;;;;;9.25;7.25;;;;;14.98;42.90;98481.91;4848073;28;101877;-80
2021/04/11 01:54:28;;;;;;;;;8.50;8.00;;;;;14.98;43.33;98479.19;4833086;28;103029;-80
2021/04/11 01:56:55;;;;;;;;;10.75;9.00;;;;;14.97;43.20;98480.25;4818527;28;102590;-80
2021/04/11 01:59:26;;;;;;;;;7.75;7.00;;;;;14.97;43.34;98484.84;4864707;28;103455;-80
2021/04/11 02:01:53;;;;;;;;;9.00;6.25;;;;;14.97;42.72;98479.41;4846547;28;101806;-80
2021/04/11 02:04:20;;;;;;;;;8.00;8.00;;;;;14.95;43.17;98471.47;4847809;28;101959;-80
2021/04/11 02:06:56;;;;;;;;;8.25;7.75;;;;;14.93;43.36;98470.88;4849341;28;102188;-80
2021/04/11 02:09:34;;;;;;;;;8.25;8.25;;;;;14.95;43.01;98471.47;4847668;28;103419;-80
2021/04/11 02:12:01;;;;;;;;;6.00;6.00;;;;;14.94;42.98;98469.00;4852193;28;102638;-80
2021/04/11 02:14:27;;;;;;;;;7.75;6.75;;;;;14.94;43.25;98461.66;4846838;28;103171;-80
2021/04/11 02:16:55;;;;;;;;;9.00;8.25;;;;;14.93;43.02;98465.44;4848249;28;102429;-80
2021/04/11 02:19:24;;;;;;;;;11.00;7.00;;;;;14.94;43.25;98469.81;4833062;28;104775;-80
2021/04/11 02:22:07;;;;;;;;;8.00;8.00;;;;;14.94;42.94;98477.16;4849424;28;103263;-80
2021/04/11 02:24:37;;;;;;;;;9.50;7.75;;;;;14.93;42.74;98467.31;4844483;28;102248;-80
2021/04/11 02:27:05;;;;;;;;;8.50;8.00;;;;;14.92;43.09;98471.94;4848714;28;102193;-80
2021/04/11 02:29:31;;;;;;;;;7.50;6.50;;;;;14.91;42.67;98470.25;4847889;29;104072;-80
2021/04/11 02:31:58;;;;;;;;;7.25;7.25;;;;;14.91;42.64;98472.16;4862413;28;102972;-80
2021/04/11 02:34:30;;;;;;;;;11.00;9.50;;;;;14.91;42.68;98469.44;4846186;28;102113;-80
2021/04/11 02:37:00;;;;;;;;;8.50;7.00;;;;;14.89;43.17;98466.13;4849333;28;102658;-80
2021/04/11 02:39:29;;;;;;;;;9.00;7.00;;;;;14.91;43.07;98464.00;4848665;29;103537;-80
2021/04/11 02:41:56;;;;;;;;;7.00;6.00;;;;;14.90;42.95;98468.63;4863840;28;102891;-80
2021/04/11 02:44:22;;;;;;;;;8.00;7.00;;;;;14.89;43.03;98469.69;4831409;28;101669;-80
2021/04/11 02:46:49;;;;;;;;;7.50;7.50;;;;;14.89;43.31;98466.13;4847855;28;102833;-80
2021/04/11 02:49:18;;;;;;;;;7.00;6.50;;;;;14.88;42.76;98470.75;4841348;28;103428;-80
2021/04/11 02:51:44;;;;;;;;;8.00;7.75;;;;;14.88;43.16;98459.84;4829092;28;102018;-80
2021/04/11 02:54:14;;;;;;;;;7.75;7.50;;;;;14.87;42.92;98450.00;4846927;28;102227;-80
2021/04/11 02:56:42;;;;;;;;;8.25;7.50;;;;;14.87;42.99;98458.19;4864348;28;101797;-80
2021/04/11 02:59:13;;;;;;;;;8.75;7.00;;;;;14.86;43.21;98456.50;4843889;28;103468;-80
2021/04/11 03:01:48;;;;;;;;;7.75;7.75;;;;;14.85;42.90;98454.88;4831544;28;102091;-80
2021/04/11 03:04:19;;;;;;;;;7.50;7.00;;;;;14.85;43.02;98454.88;4846841;28;103257;-80
2021/04/11 03:06:55;;;;;;;;;8.50;8.00;;;;;14.85;42.79;98449.44;4843800;28;102560;-80
2021/04/11 03:09:23;;;;;;;;;9.00;7.25;;;;;14.84;42.52;98453.22;4830788;28;103426;-80
2021/04/11 03:11:51;;;;;;;;;9.00;8.00;;;;;14.85;43.22;98454.88;4829802;28;103084;-80
2021/04/11 03:14:20;;;;;;;;;8.25;7.00;;;;;14.84;42.61;98457.81;4845576;28;102188;-80
2021/04/11 03:16:47;;;;;;;;;8.75;7.75;;;;;14.83;42.86;98439.81;4864859;28;102653;-80
2021/04/11 03:19:19;;;;;;;;;8.00;6.75;;;;;14.84;42.81;98457.81;4843912;28;103542;-80
2021/04/11 03:21:46;;;;;;;;;7.50;7.00;;;;;14.83;43.42;98456.16;4845288;28;103243;-80
2021/04/11 03:24:12;;;;;;;;;6.50;6.00;;;;;14.82;42.99;98452.59;4846843;28;102305;-80
2021/04/11 03:26:39;;;;;;;;;9.00;8.00;;;;;14.82;43.13;98449.03;4864842;28;102576;-80
2021/04/11 03:29:08;;;;;;;;;8.00;8.00;;;;;14.80;42.98;98452.03;4860321;28;103417;-80
2021/04/11 03:31:39;;;;;;;;;10.25;9.25;;;;;14.81;42.65;98455.56;4842517;28;102051;-80
2021/04/11 03:34:05;;;;;;;;;10.50;9.00;;;;;14.81;43.10;98453.69;4858718;28;102889;-80
2021/04/11 03:36:33;;;;;;;;;12.00;6.75;;;;;14.79;43.23;98447.63;4844728;28;102076;-80
2021/04/11 03:39:00;;;;;;;;;7.75;7.00;;;;;14.79;42.84;98444.06;4844735;28;103418;-80
2021/04/11 03:41:30;;;;;;;;;8.25;7.25;;;;;14.78;43.23;98451.41;4847282;28;101924;-80
2021/04/11 03:43:58;;;;;;;;;9.75;7.75;;;;;14.77;42.79;98448.94;4846936;28;102042;-80
2021/04/11 03:46:41;;;;;;;;;8.25;6.50;;;;;14.76;42.65;98445.38;4830547;28;102983;-80
2021/04/11 03:49:11;;;;;;;;;8.00;8.00;;;;;14.77;42.99;98440.78;4845551;28;103379;-80
2021/04/11 03:51:39;;;;;;;;;6.50;6.25;;;;;14.77;43.00;98443.50;4859319;28;103549;-80
2021/04/11 03:54:16;;;;;;;;;7.25;6.25;;;;;14.75;42.68;98443.72;4829623;28;102168;-80
2021/04/11 03:57:06;;;;;;;;;7.75;6.75;;;;;14.75;42.98;98438.28;4864125;28;103158;-80
2021/04/11 03:59:41;;;;;;;;;9.50;7.50;;;;;14.75;42.64;98443.72;4848397;28;103649;-80
2021/04/11 04:02:07;;;;;;;;;7.75;7.75;;;;;14.72;43.20;98431.38;4828243;28;102005;-80
2021/04/11 04:04:34;;;;;;;;;10.25;6.75;;;;;14.73;42.99;98440.38;4845357;28;102453;-80
2021/04/11 04:07:01;;;;;;;;;5.50;5.00;;;;;14.72;42.78;98439.53;4859740;28;102007;-80
2021/04/11 04:09:27;;;;;;;;;9.00;6.50;;;;;14.73;42.83;98426.78;4860570;28;103422;-80
2021/04/11 04:12:16;;;;;;;;;6.75;6.25;;;;;14.72;42.97;98438.75;4846914;28;102136;-80
2021/04/11 04:14:55;;;;;;;;;8.00;7.00;;;;;14.71;43.07;98437.06;4863281;28;102014;-80
2021/04/11 04:17:30;;;;;;;;;6.50;6.25;;;;;14.70;43.21;98436.25;4863696;28;102111;-80
2021/04/11 04:20:21;;;;;;;;;6.75;6.75;;;;;14.70;43.02;98435.41;4846217;28;103857;-80
2021/04/11 04:22:56;;;;;;;;;9.75;7.75;;;;;14.70;42.90;98424.53;4846228;28;101771;-80
2021/04/11 04:25:31;;;;;;;;;9.00;7.00;;;;;14.69;42.91;98431.84;4860961;28;102232;-80
2021/04/11 04:28:07;;;;;;;;;6.00;6.00;;;;;14.68;42.64;98427.47;4862473;28;101822;-80
2021/04/11 04:30:55;;;;;;;;;7.00;7.00;;;;;14.69;43.35;98420.13;4858171;28;103432;-80
2021/04/11 04:33:34;;;;;;;;;8.00;6.00;;;;;14.69;43.40;98420.13;4843804;28;101900;-80
2021/04/11 04:36:30;;;;;;;;;7.00;7.00;;;;;14.68;43.12;98418.47;4864026;28;102021;-80
2021/04/11 04:39:15;;;;;;;;;8.50;7.00;;;;;14.68;43.20;98426.63;4846792;28;102608;-80
2021/04/11 04:41:46;;;;;;;;;6.25;5.00;;;;;14.67;42.85;98420.38;4862075;28;103701;-80
2021/04/11 04:44:37;;;;;;;;;8.75;6.75;;;;;14.67;42.95;98422.28;4843811;29;101977;-80
2021/04/11 04:47:27;;;;;;;;;8.00;6.00;;;;;14.67;43.22;98414.09;4836555;29;102058;-80
2021/04/11 04:50:12;;;;;;;;;7.25;6.50;;;;;14.66;42.72;98412.44;4836126;29;102012;-80
2021/04/11 04:52:39;;;;;;;;;6.25;6.00;;;;;14.66;43.06;98420.59;4847267;28;103023;-80
2021/04/11 04:55:09;;;;;;;;;8.25;6.25;;;;;14.64;42.66;98415.38;4830156;29;103025;-80
2021/04/11 04:57:53;;;;;;;;;6.00;5.00;;;;;14.66;42.80;98415.16;4814072;28;102111;-80
2021/04/11 05:00:23;;;;;;;;;6.75;6.25;;;;;14.64;43.01;98422.72;4831216;28;102900;-80
2021/04/11 05:02:57;;;;;;;;;5.25;5.25;;;;;14.65;43.28;98422.50;4829837;29;103595;-80
2021/04/11 05:05:23;;;;;;;;;8.00;7.00;;;;;14.66;43.05;98436.94;4846099;28;101941;-80
2021/04/11 05:08:13;;;;;;;;;6.50;6.00;;;;;14.65;43.05;98438.81;4845804;28;101805;-80
2021/04/11 05:10:47;;;;;;;;;8.75;7.50;;;;;14.62;42.90;98439.28;4816825;29;102040;-80
2021/04/11 05:13:21;;;;;;;;;6.75;5.00;;;;;14.65;42.74;98440.72;4843390;29;103429;-80
2021/04/11 05:15:59;;;;;;;;;5.00;5.00;;;;;14.64;43.01;98437.16;4830605;29;101986;-80
2021/04/11 05:18:35;;;;;;;;;6.50;5.75;;;;;14.65;42.95;98438.00;4830391;29;102157;-80
2021/04/11 05:21:03;;;;;;;;;5.50;5.50;;;;;14.64;43.73;98436.31;4846447;28;102112;-80
2021/04/11 05:23:41;;;;;;;;;6.50;5.00;;;;;14.65;43.26;98438.00;4830992;29;103385;-80
2021/04/11 05:26:20;;;;;;;;;7.25;7.25;;;;;14.65;42.51;98433.38;4846791;28;102028;-80
2021/04/11 05:28:56;;;;;;;;;7.00;6.50;;;;;14.65;42.63;98438.00;4843587;28;101974;-80
2021/04/11 05:31:41;;;;;;;;;6.75;6.50;;;;;14.64;42.79;98426.28;4846204;28;102453;-80
2021/04/11 05:34:09;;;;;;;;;6.50;6.00;;;;;14.65;42.96;98429.81;4831976;29;103381;-80
2021/04/11 05:36:47;;;;;;;;;7.00;6.00;;;;;14.64;42.90;98425.44;4813786;29;102906;-80
2021/04/11 05:39:26;;;;;;;;;6.50;5.75;;;;;14.64;42.81;98423.53;4827747;28;102215;-80
2021/04/11 05:42:15;;;;;;;;;8.75;7.25;;;;;14.64;43.30;98425.44;4847190;29;102012;-80
2021/04/11 05:44:48;;;;;;;;;5.50;5.00;;;;;14.64;42.92;98422.72;4841305;28;103815;-80
2021/04/11 05:47:37;;;;;;;;;8.50;6.00;;;;;14.65;42.81;98424.38;4841744;28;102114;-80
2021/04/11 05:50:06;;;;;;;;;8.75;6.00;;;;;14.64;43.24;98426.28;4863507;28;101809;-80
2021/04/11 05:52:44;;;;;;;;;6.75;5.00;;;;;14.64;43.10;98425.44;4862840;28;102070;-80
2021/04/11 05:55:11;;;;;;;;;6.50;6.50;;;;;14.64;42.76;98425.44;4844988;28;103490;-80
2021/04/11 05:57:42;;;;;;;;;3.50;3.00;;;;;14.62;43.01;98411.25;4817239;28;101668;-80
2021/04/11 06:00:48;;;;;;;;;5.75;4.75;;;;;14.64;42.75;98418.09;4847423;28;102195;-80
2021/04/11 06:03:18;;;;;;;;;7.75;6.00;;;;;14.64;43.18;98415.38;4847933;28;101852;-79
2021/04/11 06:06:26;;;;;;;;;8.75;7.50;;;;;14.65;42.91;98421.66;4858635;28;103541;-80
2021/04/11 06:08:56;;;;;;;;;5.50;5.00;;;;;14.64;42.80;98417.28;4862676;28;101827;-80
2021/04/11 06:11:37;;;;;;;;;6.75;5.75;;;;;14.65;42.65;98418.94;4864047;28;101707;-80
2021/04/11 06:14:10;;;;;;;;;6.50;6.50;;;;;14.64;43.55;98412.66;4832522;28;103281;-81
2021/04/11 06:16:37;;;;;;;;;7.00;7.00;;;;;14.65;42.80;98413.50;4865426;28;103384;-81
2021/04/11 06:19:06;;;;;;;;;7.00;6.75;;;;;14.65;43.33;98408.06;4845571;28;101750;-81
2021/04/11 06:21:47;;;;;;;;;5.50;5.00;;;;;14.66;43.15;98417.88;4845555;28;102081;-80
2021/04/11 06:24:38;;;;;;;;;4.50;4.00;;;;;14.66;43.13;98412.44;4865428;28;102170;-80
2021/04/11 06:27:04;;;;;;;;;6.00;5.00;;;;;14.64;42.75;98401.78;4866297;28;103427;-80
2021/04/11 06:29:56;;;;;;;;;6.00;6.00;;;;;14.63;43.22;98404.75;4865593;28;103001;-80
2021/04/11 06:32:23;;;;;;;;;7.00;6.75;;;;;14.66;42.88;98407.00;4849722;28;102873;-80
2021/04/11 06:34:59;;;;;;;;;4.25;4.25;;;;;14.66;43.31;98415.16;4866166;28;102594;-80
2021/04/11 06:37:26;;;;;;;;;6.50;5.75;;;;;14.65;43.54;98410.78;4833032;28;103649;-80
2021/04/11 06:39:53;;;;;;;;;7.00;6.00;;;;;14.65;42.42;98411.59;4849260;28;101782;-79
2021/04/11 06:42:33;;;;;;;;;7.50;6.75;;;;;14.65;43.04;98410.78;4848486;28;101889;-80
2021/04/11 06:45:12;;;;;;;;;7.00;5.00;;;;;14.65;43.26;98408.88;4847378;28;102114;-80
2021/04/11 06:47:39;;;;;;;;;7.00;6.00;;;;;14.66;43.18;98398.84;4863576;28;104455;-80
2021/04/11 06:50:27;;;;;;;;;6.25;5.00;;;;;14.66;43.10;98398.84;4858006;28;101983;-80
2021/04/11 06:53:03;;;;;;;;;7.50;5.75;;;;;14.67;43.02;98393.16;4859805;28;101903;-80
2021/04/11 06:55:45;;;;;;;;;5.25;5.00;;;;;14.67;42.86;98398.63;4864926;28;102107;-79
2021/04/11 06:58:33;;;;;;;;;6.25;5.75;;;;;14.68;42.50;98388.53;4848300;28;103530;-80
2021/04/11 07:01:27;;;;;;;;;7.25;6.50;;;;;14.68;42.67;98393.97;4860554;28;102083;-80
2021/04/11 07:04:25;;;;;;;;;7.50;6.25;;;;;14.68;42.84;98402.13;4857329;28;102925;-80
2021/04/11 07:07:29;;;;;;;;;7.00;6.00;;;;;14.69;42.48;98404.63;4846669;28;102143;-80
2021/04/11 07:10:20;;;;;;;;;6.75;6.75;;;;;14.69;42.99;98398.38;4865285;28;103781;-80
2021/04/11 07:13:28;;;;;;;;;0.75;0.00;;;;;14.69;42.68;98401.09;4862470;28;101848;-80
2021/04/11 07:16:20;;;;;;;;;6.75;6.50;;;;;14.70;43.20;98397.31;4833807;28;103056;-80
2021/04/11 07:19:01;;;;;;;;;9.00;7.50;;;;;14.71;42.76;98398.97;4866687;28;101865;-80
2021/04/11 07:21:43;;;;;;;;;8.25;7.00;;;;;14.71;42.73;98386.19;4847480;28;103568;-80
2021/04/11 07:24:29;;;;;;;;;8.50;7.75;;;;;14.71;43.17;98397.09;4860902;28;102084;-80
2021/04/11 07:27:11;;;;;;;;;7.50;7.00;;;;;14.73;43.25;98394.09;4863858;28;103170;-80
2021/04/11 07:29:56;;;;;;;;;8.50;7.00;;;;;14.73;42.83;98391.38;4845844;28;102267;-80
2021/04/11 07:32:44;;;;;;;;;5.50;4.00;;;;;14.74;42.63;98384.88;4846134;28;103566;-81
2021/04/11 07:41:53;;;;;;;;;7.50;7.50;;;;;14.75;42.91;98378.38;5341843;23;102989;-87
2021/04/11 07:44:57;;;;;;;;;6.75;6.75;;;;;14.76;42.70;98373.78;4797689;29;104304;-87
2021/04/11 07:47:50;;;;;;;;;10.50;9.00;;;;;14.76;42.51;98377.34;4814347;29;103473;-86
2021/04/11 07:50:55;;;;;;;;;5.25;5.00;;;;;14.77;42.77;98387.13;4806922;29;102577;-86
2021/04/11 07:53:44;;;;;;;;;6.00;6.00;;;;;14.79;42.73;98387.75;4784394;29;102623;-87
2021/04/11 07:56:32;;;;;;;;;8.50;7.75;;;;;14.78;42.71;98380.63;4817108;29;104093;-87
2021/04/11 07:59:23;;;;;;;;;9.75;7.50;;;;;14.79;43.20;98373.31;4813950;29;102754;-86
2021/04/11 08:02:27;;;;;;;;;7.00;6.00;;;;;14.80;42.63;98380.41;4794602;29;103964;-87
2021/04/11 08:05:09;;;;;;;;;8.00;7.75;;;;;14.80;43.05;98386.69;4820181;29;102231;-86
2021/04/11 08:08:10;;;;;;;;;8.50;6.25;;;;;14.80;43.02;98386.69;4819968;29;105386;-86
2021/04/11 08:10:53;;;;;;;;;7.25;6.75;;;;;14.82;42.73;98379.09;4820130;29;103316;-86
2021/04/11 08:13:40;;;;;;;;;9.25;7.25;;;;;14.82;43.10;98392.72;4805518;29;102772;-87
2021/04/11 08:16:25;;;;;;;;;7.25;7.00;;;;;14.82;42.62;98381.81;4796805;29;102950;-86
2021/04/11 08:19:13;;;;;;;;;7.75;6.50;;;;;14.85;43.31;98384.09;4814931;29;105072;-85
2021/04/11 08:21:46;;;;;;;;;7.50;7.50;;;;;14.87;43.17;98381.13;4821029;29;103681;-85
2021/04/11 08:24:29;;;;;;;;;7.25;5.75;;;;;14.87;42.94;98378.41;4795947;29;102912;-85
2021/04/11 08:27:07;;;;;;;;;6.75;6.00;;;;;14.88;43.03;98372.72;4805412;29;103133;-85
2021/04/11 08:29:55;;;;;;;;;10.00;7.25;;;;;14.88;42.61;98383.63;4801234;29;104320;-86
2021/04/11 08:32:36;;;;;;;;;8.00;6.00;;;;;14.90;42.93;98372.50;4822653;29;102333;-86
2021/04/11 08:35:21;;;;;;;;;9.00;9.00;;;;;14.90;42.56;98376.06;4786525;29;103229;-85
2021/04/11 08:38:08;;;;;;;;;8.25;8.00;;;;;14.90;43.12;98370.63;4821775;29;103496;-85
2021/04/11 08:40:47;;;;;;;;;6.00;6.00;;;;;14.91;42.95;98368.69;4788874;29;104173;-86
2021/04/11 08:43:26;;;;;;;;;6.75;6.75;;;;;14.92;42.66;98373.91;4820488;29;102393;-86
2021/04/11 08:46:07;;;;;;;;;8.50;6.75;;;;;14.93;42.47;98374.75;4798174;29;102664;-85
2021/04/11 08:48:39;;;;;;;;;8.50;7.25;;;;;14.95;42.71;98375.38;4821662;29;102646;-86
2021/04/11 08:51:27;;;;;;;;;6.75;6.75;;;;;14.95;42.81;98373.44;4817938;29;104285;-86
2021/04/11 08:54:31;;;;;;;;;8.25;7.25;;;;;14.96;42.73;98377.84;4801834;29;103247;-85
2021/04/11 08:57:25;;;;;;;;;9.25;8.50;;;;;14.96;42.97;98369.66;4814817;29;103370;-85
2021/04/11 08:59:55;;;;;;;;;7.50;7.25;;;;;14.98;42.66;98377.59;4799190;29;103041;-86
2021/04/11 09:02:52;;;;;;;;;7.50;7.50;;;;;14.98;43.01;98367.53;4802808;29;104087;-86
2021/04/11 09:05:40;;;;;;;;;7.00;6.00;;;;;14.99;42.66;98369.22;4815204;29;107159;-86
2021/04/11 09:08:25;;;;;;;;;8.25;7.75;;;;;15.00;42.91;98367.28;4801278;29;102716;-86
2021/04/11 09:10:57;;;;;;;;;6.00;6.00;;;;;15.01;42.47;98377.13;4819437;29;102440;-85
2021/04/11 09:13:34;;;;;;;;;7.25;6.75;;;;;15.02;42.54;98373.34;4807053;29;104367;-85
2021/04/11 09:16:26;;;;;;;;;8.75;8.00;;;;;15.02;42.57;98373.34;4813690;29;103518;-85
2021/04/11 09:19:07;;;;;;;;;6.00;5.75;;;;;15.03;42.65;98370.41;4820637;29;102493;-85
2021/04/11 09:22:12;;;;;;;;;7.00;6.50;;;;;15.03;42.86;98372.28;4807240;29;103371;-85
2021/04/11 09:24:51;;;;;;;;;8.50;8.00;;;;;15.05;42.82;98368.25;4786056;29;103810;-85
2021/04/11 09:27:39;;;;;;;;;6.25;5.75;;;;;15.05;42.93;98379.16;4819536;29;102109;-85
2021/04/11 09:30:23;;;;;;;;;7.00;6.25;;;;;15.07;42.44;98357.13;4807551;29;102741;-85
2021/04/11 09:33:24;;;;;;;;;8.75;6.25;;;;;15.08;42.40;98348.72;4804454;29;102424;-85
2021/04/11 09:36:06;;;;;;;;;9.00;7.00;;;;;15.09;42.44;98344.09;4816460;29;104134;-85
2021/04/11 09:38:39;;;;;;;;;7.00;6.00;;;;;15.11;42.76;98347.44;4821002;29;102216;-85
2021/04/11 09:41:27;;;;;;;;;6.00;6.00;;;;;15.10;42.43;98343.88;4822001;29;102738;-85
2021/04/11 09:44:15;;;;;;;;;8.00;7.00;;;;;15.12;42.78;98352.66;4806259;29;104276;-84
2021/04/11 09:46:53;;;;;;;;;7.50;6.00;;;;;15.16;42.47;98347.56;4818524;29;104081;-84
2021/04/11 09:49:48;;;;;;;;;7.00;7.00;;;;;15.18;42.52;98351.69;4820842;29;105172;-84
2021/04/11 09:52:36;;;;;;;;;6.25;5.75;;;;;15.20;42.86;98354.19;4818903;29;102413;-86
2021/04/11 09:55:11;;;;;;;;;6.50;6.00;;;;;15.22;42.95;98353.94;4823970;29;105426;-86
2021/04/11 09:58:04;;;;;;;;;7.25;6.50;;;;;15.22;42.89;98345.78;4792927;29;104371;-86
2021/04/11 10:00:36;;;;;;;;;6.25;6.25;;;;;15.23;43.21;98348.25;4803351;29;103654;-87
2021/04/11 10:03:05;;;;;;;;;6.75;6.50;;;;;15.25;42.41;98358.91;4819450;29;102721;-87
2021/04/11 10:06:03;;;;;;;;;7.75;6.25;;;;;15.24;42.49;98349.91;4825119;29;102549;-87
2021/04/11 10:09:11;;;;;;;;;10.25;7.25;;;;;15.26;42.91;98346.97;4830652;29;104455;-86
2021/04/11 10:11:56;;;;;;;;;7.25;7.25;;;;;15.26;42.46;98347.78;4833629;28;102070;-86
2021/04/11 10:14:35;;;;;;;;;8.25;7.00;;;;;15.28;42.86;98358.44;4822607;29;102331;-86
2021/04/11 10:17:19;;;;;;;;;9.00;8.00;;;;;15.29;42.74;98358.22;4817571;29;104740;-86
2021/04/11 10:19:50;;;;;;;;;3.50;3.00;;;;;15.30;42.78;98359.03;4801525;29;105698;-86
2021/04/11 10:22:38;;;;;;;;;5.00;5.00;;;;;15.30;42.91;98365.31;4820821;29;101971;-85
2021/04/11 10:25:12;;;;;;;;;7.25;5.75;;;;;15.31;42.64;98355.25;4830887;29;102192;-88
2021/04/11 10:27:45;;;;;;;;;7.00;5.50;;;;;15.33;42.70;98351.22;4817818;29;102238;-90
2021/04/11 10:30:12;;;;;;;;;8.75;7.00;;;;;15.35;42.83;98356.44;4820175;29;103654;-89
2021/04/11 10:33:09;;;;;;;;;7.00;7.00;;;;;15.36;42.79;98342.56;4818726;29;103223;-89
2021/04/11 10:36:03;;;;;;;;;6.00;6.00;;;;;15.38;42.62;98354.06;4810005;29;101930;-90
2021/04/11 10:38:35;;;;;;;;;7.00;7.00;;;;;15.39;42.65;98357.63;4835408;29;102198;-90
2021/04/11 10:41:25;;;;;;;;;10.75;6.25;;;;;15.41;42.85;98360.91;4817308;29;103697;-90
2021/04/11 10:44:15;;;;;;;;;6.50;6.50;;;;;15.44;42.67;98352.28;4831305;28;102836;-89
2021/04/11 10:46:52;;;;;;;;;6.50;6.25;;;;;15.45;42.26;98359.38;4834665;29;101935;-90
2021/04/11 10:49:44;;;;;;;;;5.50;5.25;;;;;15.47;42.73;98346.34;4818134;29;102208;-88
2021/04/11 10:52:10;;;;;;;;;4.75;4.50;;;;;15.49;42.47;98338.78;4831451;28;103591;-88
2021/04/11 10:55:02;;;;;;;;;5.50;5.00;;;;;15.50;42.62;98334.97;4831452;29;102146;-83
2021/04/11 10:57:46;;;;;;;;;7.25;7.25;;;;;15.53;43.26;98332.66;4819574;29;102325;-83
2021/04/11 11:00:23;;;;;;;;;6.00;6.00;;;;;15.56;42.87;98336.78;4817617;29;102150;-83
2021/04/11 11:02:59;;;;;;;;;7.75;7.50;;;;;15.58;42.38;98340.06;4817758;29;103612;-83
2021/04/11 11:05:35;;;;;;;;;6.50;6.00;;;;;15.59;42.23;98341.75;4831802;28;102451;-83
2021/04/11 11:08:01;;;;;;;;;4.50;4.50;;;;;15.61;42.84;98328.72;4835552;29;102375;-83
2021/04/11 11:10:38;;;;;;;;;6.00;6.00;;;;;15.61;42.44;98332.28;4833101;29;102259;-83
2021/04/11 11:13:16;;;;;;;;;5.50;5.00;;;;;15.64;42.64;98328.22;4815926;29;103424;-83
2021/04/11 11:16:10;;;;;;;;;5.75;5.75;;;;;15.66;42.41;98326.09;4816971;29;102304;-83
2021/04/11 11:18:56;;;;;;;;;8.25;6.50;;;;;15.67;42.49;98327.72;4816453;29;103561;-83
2021/04/11 11:21:30;;;;;;;;;7.00;7.00;;;;;15.70;42.09;98329.16;4800473;29;102213;-83
2021/04/11 11:24:16;;;;;;;;;5.00;4.25;;;;;15.70;42.42;98330.00;4817804;29;103438;-83
2021/04/11 11:27:04;;;;;;;;;7.00;6.00;;;;;15.71;42.39;98312.59;4817889;29;102263;-89
2021/04/11 11:29:39;;;;;;;;;7.00;6.75;;;;;15.75;42.42;98332.00;4831544;28;101853;-88
2021/04/11 11:32:30;;;;;;;;;5.00;5.00;;;;;15.77;42.53;98333.41;4831106;28;101893;-90
2021/04/11 11:35:04;;;;;;;;;7.25;7.00;;;;;15.79;42.78;98330.44;4821233;29;103630;-89
2021/04/11 11:38:06;;;;;;;;;6.00;6.00;;;;;15.78;41.82;98324.16;4800916;29;101781;-90
2021/04/11 11:40:42;;;;;;;;;7.00;5.00;;;;;15.79;42.33;98325.81;4817088;29;102280;-88
2021/04/11 11:43:12;;;;;;;;;7.50;7.00;;;;;15.80;42.24;98332.13;4801230;29;102096;-90
2021/04/11 11:45:41;;;;;;;;;8.25;6.75;;;;;15.80;42.41;98343.03;4835386;29;102590;-90
2021/04/11 11:48:32;;;;;;;;;7.50;7.00;;;;;15.80;42.23;98337.56;4831073;28;101698;-90
2021/04/11 11:51:18;;;;;;;;;9.75;7.25;;;;;15.80;42.34;98346.59;4837911;29;102103;-88
2021/04/11 11:53:57;;;;;;;;;8.50;7.75;;;;;15.82;42.73;98338.97;4835835;29;101981;-88
2021/04/11 11:56:27;;;;;;;;;8.00;7.00;;;;;15.86;42.53;98337.41;4816165;29;104315;-83
2021/04/11 11:59:10;;;;;;;;;7.50;6.75;;;;;15.90;42.30;98344.03;4816330;29;102113;-83
2021/04/11 12:01:53;;;;;;;;;5.00;5.00;;;;;15.91;42.87;98337.53;4837046;28;102928;-84
2021/04/11 12:04:34;;;;;;;;;6.00;6.00;;;;;15.93;42.55;98332.66;4832780;28;103025;-83
2021/04/11 12:07:27;;;;;;;;;6.50;5.75;;;;;15.94;42.32;98337.03;4833147;28;103648;-86
2021/04/11 12:10:18;;;;;;;;;5.00;4.75;;;;;15.96;41.92;98337.63;4817288;29;102204;-83
2021/04/11 12:13:08;;;;;;;;;7.00;6.00;;;;;15.96;42.45;98334.06;4818719;29;102061;-83
2021/04/11 12:15:54;;;;;;;;;8.25;6.00;;;;;15.97;42.48;98342.03;4800656;29;101788;-83
2021/04/11 12:18:24;;;;;;;;;5.25;5.00;;;;;15.97;42.38;98333.84;4833970;29;103423;-83
2021/04/11 12:21:12;;;;;;;;;8.00;7.75;;;;;15.96;42.47;98334.91;4835789;29;102234;-83